Time;durP1;ratioP1;P1;durP2;ratioP2;P2;SDS_P1;SDS_P2;PMS_P1;PMS_P2;Temp;Humidity;BMP_temperature;BMP_pressure;BME280_temperature;BME280_humidity;BME280_pressure;Samples;Min_cycle;Max_cycle;Signal;HPM_P1;HPM_P2
2023/12/22 15:52:14;;;;;;;5.57;0.83;;;11.20;99.90;;;;;;5072469;28;20547;-83
2023/12/22 15:54:40;;;;;;;7.23;1.30;;;11.30;99.90;;;;;;5067641;28;20231;-80
2023/12/22 15:57:08;;;;;;;7.77;1.03;;;11.40;99.90;;;;;;5074160;28;20186;-81
2023/12/22 15:59:34;;;;;;;6.77;1.43;;;11.30;99.90;;;;;;5083961;28;20176;-80
2023/12/22 16:02:00;;;;;;;7.93;1.20;;;11.30;99.90;;;;;;5069319;28;20252;-80
2023/12/22 16:04:26;;;;;;;8.37;1.40;;;11.30;99.90;;;;;;5067504;28;20314;-80
2023/12/22 16:06:53;;;;;;;7.33;1.03;;;11.30;99.90;;;;;;5070618;28;20179;-86
2023/12/22 16:09:18;;;;;;;8.63;1.00;;;11.30;99.90;;;;;;5068979;28;20225;-80
2023/12/22 16:11:44;;;;;;;4.80;1.10;;;11.30;99.90;;;;;;5069882;28;20301;-83
2023/12/22 16:14:10;;;;;;;14.13;1.50;;;11.30;99.90;;;;;;5071576;28;20508;-81
2023/12/22 16:16:36;;;;;;;9.53;1.33;;;11.40;99.90;;;;;;5068304;28;20164;-84
2023/12/22 16:19:02;;;;;;;9.13;1.50;;;11.30;99.90;;;;;;5071922;28;20181;-87
2023/12/22 16:21:28;;;;;;;4.13;1.00;;;11.40;99.90;;;;;;5070780;28;20371;-81
2023/12/22 16:23:53;;;;;;;8.93;1.20;;;11.40;99.90;;;;;;5082492;28;20169;-79
2023/12/22 16:26:21;;;;;;;10.10;1.23;;;11.40;91.90;;;;;;5067986;28;20589;-81
2023/12/22 16:28:47;;;;;;;5.27;1.13;;;11.40;99.90;;;;;;5047709;28;20216;-80
2023/12/22 16:31:13;;;;;;;5.97;1.17;;;11.30;94.20;;;;;;5062108;28;20303;-80
2023/12/22 16:33:39;;;;;;;9.93;1.33;;;;;;;;;;5071786;28;20176;-80
2023/12/22 16:36:11;;;;;;;7.57;1.17;;;11.30;96.10;;;;;;5074090;28;20188;-78
2023/12/22 16:38:37;;;;;;;4.37;1.00;;;11.30;99.90;;;;;;5063481;28;20297;-78
2023/12/22 16:41:06;;;;;;;7.80;1.27;;;11.30;99.90;;;;;;5062171;28;20181;-76
2023/12/22 16:43:35;;;;;;;8.43;1.20;;;11.30;92.20;;;;;;5062835;28;20181;-79
2023/12/22 16:46:01;;;;;;;7.43;1.50;;;11.40;84.00;;;;;;5069216;28;20263;-81
2023/12/22 16:48:27;;;;;;;6.20;1.00;;;11.30;90.80;;;;;;5074943;28;20180;-80
2023/12/22 16:50:55;;;;;;;7.40;1.00;;;11.30;99.90;;;;;;5076951;28;20204;-84
2023/12/22 16:53:23;;;;;;;5.53;0.90;;;11.30;99.90;;;;;;5074026;28;20199;-80
2023/12/22 16:55:49;;;;;;;6.03;1.00;;;11.30;99.90;;;;;;5122226;22;20240;-80
2023/12/22 16:58:15;;;;;;;8.20;1.20;;;11.30;99.90;;;;;;5052720;28;20246;-80
2023/12/22 17:00:40;;;;;;;9.80;1.63;;;11.30;99.90;;;;;;5052309;28;20176;-80
2023/12/22 17:03:08;;;;;;;8.93;1.17;;;11.20;99.90;;;;;;5045093;28;20198;-82
2023/12/22 17:05:33;;;;;;;5.83;1.20;;;11.20;99.90;;;;;;5037957;28;20197;-81
2023/12/22 17:07:59;;;;;;;9.53;1.30;;;11.20;99.90;;;;;;5039344;28;20178;-85
2023/12/22 17:10:28;;;;;;;6.93;1.40;;;11.20;99.90;;;;;;5030856;28;20209;-81
2023/12/22 17:12:53;;;;;;;6.90;1.53;;;11.20;99.90;;;;;;5035816;28;20235;-82
2023/12/22 17:15:19;;;;;;;11.20;1.47;;;11.20;99.90;;;;;;5035763;28;20169;-82
2023/12/22 17:17:45;;;;;;;7.83;1.50;;;11.10;99.90;;;;;;5052462;28;20554;-83
2023/12/22 17:20:11;;;;;;;10.20;1.53;;;11.10;99.90;;;;;;5042529;28;20249;-86
2023/12/22 17:22:39;;;;;;;7.93;1.40;;;11.10;99.90;;;;;;5038526;28;20193;-81
2023/12/22 17:25:05;;;;;;;10.37;1.57;;;11.10;99.90;;;;;;5048823;28;20182;-81
2023/12/22 17:27:31;;;;;;;6.23;1.30;;;11.10;99.90;;;;;;5020787;28;20276;-82
2023/12/22 17:29:57;;;;;;;7.17;1.60;;;11.10;99.90;;;;;;5024925;28;20158;-81
2023/12/22 17:32:22;;;;;;;7.13;1.30;;;11.10;99.90;;;;;;5031640;28;20182;-85
2023/12/22 17:34:48;;;;;;;5.17;0.83;;;;;;;;;;5032346;28;20179;-80
2023/12/22 17:37:14;;;;;;;26.07;8.87;;;11.10;99.90;;;;;;5046559;28;20177;-78
2023/12/22 17:39:40;;;;;;;11.57;2.73;;;11.00;99.90;;;;;;5578252;22;20220;-80
2023/12/22 17:42:06;;;;;;;6.30;1.40;;;;;;;;;;5073790;28;20184;-85
2023/12/22 17:44:31;;;;;;;5.10;1.23;;;11.10;99.90;;;;;;5139988;22;20728;-83
2023/12/22 17:47:02;;;;;;;7.27;1.20;;;11.10;99.90;;;;;;5056657;28;20181;-82
2023/12/22 17:49:30;;;;;;;9.13;1.50;;;11.10;99.90;;;;;;5073422;28;20170;-83
2023/12/22 17:51:56;;;;;;;11.63;1.60;;;10.90;99.90;;;;;;5048061;28;20218;-83
2023/12/22 17:54:22;;;;;;;50.00;23.90;;;11.10;99.90;;;;;;5037179;28;20645;-83
2023/12/22 17:57:00;;;;;;;6.20;1.83;;;11.10;99.90;;;;;;5037512;28;20181;-84
2023/12/22 17:59:27;;;;;;;8.27;1.50;;;11.00;99.90;;;;;;5036855;28;20378;-81
2023/12/22 18:01:54;;;;;;;10.23;2.17;;;11.00;99.90;;;;;;5036156;28;20185;-82
2023/12/22 18:04:23;;;;;;;11.33;2.70;;;11.10;99.90;;;;;;5036392;28;20233;-81
2023/12/22 18:06:48;;;;;;;8.47;2.30;;;11.00;99.90;;;;;;5025679;28;20194;-82
2023/12/22 18:09:14;;;;;;;9.37;1.83;;;11.10;99.90;;;;;;5034892;28;20178;-80
2023/12/22 18:11:45;;;;;;;7.47;1.60;;;11.00;99.90;;;;;;5032580;28;20206;-85
2023/12/22 18:14:10;;;;;;;10.57;2.50;;;11.00;99.90;;;;;;5033122;28;20432;-80
2023/12/22 18:16:43;;;;;;;8.27;1.57;;;11.10;99.90;;;;;;5034025;28;20660;-82
2023/12/22 18:19:09;;;;;;;10.77;2.97;;;11.00;99.90;;;;;;5039213;28;20184;-80
2023/12/22 18:21:37;;;;;;;13.47;2.17;;;11.00;99.90;;;;;;5033780;28;20641;-80
2023/12/22 18:24:03;;;;;;;11.07;2.80;;;11.00;99.90;;;;;;5034686;28;20176;-81
2023/12/22 18:26:28;;;;;;;7.33;1.57;;;11.00;99.90;;;;;;5035451;28;20185;-88
2023/12/22 18:28:54;;;;;;;8.90;1.57;;;11.00;99.90;;;;;;5035931;28;20178;-85
2023/12/22 18:31:20;;;;;;;9.60;2.80;;;11.00;99.90;;;;;;5034764;28;20237;-83
2023/12/22 18:33:49;;;;;;;4.57;1.57;;;11.00;99.90;;;;;;5033103;28;20645;-83
2023/12/22 18:36:15;;;;;;;8.77;1.10;;;11.00;99.90;;;;;;5038659;28;20248;-81
2023/12/22 18:38:40;;;;;;;7.00;1.80;;;11.00;99.90;;;;;;5048680;28;20628;-82
2023/12/22 18:41:10;;;;;;;8.47;1.80;;;11.00;99.90;;;;;;5042622;28;20209;-81
2023/12/22 18:43:36;;;;;;;8.10;1.23;;;11.00;99.90;;;;;;5033344;28;20206;-83
2023/12/22 18:46:03;;;;;;;8.47;1.57;;;11.00;99.90;;;;;;5034231;28;20244;-83
2023/12/22 18:48:28;;;;;;;6.87;1.33;;;11.00;99.90;;;;;;5038238;28;20205;-83
2023/12/22 18:50:54;;;;;;;7.67;1.77;;;11.00;99.90;;;;;;5034954;28;20348;-85
2023/12/22 18:53:20;;;;;;;9.17;1.67;;;10.90;99.90;;;;;;5033627;28;20193;-81
2023/12/22 18:55:46;;;;;;;5.60;1.60;;;10.70;99.90;;;;;;5032027;28;20174;-83
2023/12/22 18:58:18;;;;;;;9.17;1.70;;;10.80;99.90;;;;;;5032535;28;20227;-83
2023/12/22 19:00:44;;;;;;;9.17;1.93;;;10.80;99.90;;;;;;5033768;28;20178;-79
2023/12/22 19:03:10;;;;;;;7.80;1.70;;;11.30;99.90;;;;;;5035519;28;20170;-80
2023/12/22 19:05:37;;;;;;;12.57;1.77;;;10.80;99.90;;;;;;5034355;28;20174;-79
2023/12/22 19:08:03;;;;;;;7.77;1.60;;;10.60;99.90;;;;;;5033796;28;20181;-80
2023/12/22 19:10:28;;;;;;;11.60;3.93;;;10.80;99.90;;;;;;5039720;28;20217;-79
2023/12/22 19:12:54;;;;;;;27.70;10.20;;;10.80;99.90;;;;;;5034184;28;20318;-78
2023/12/22 19:15:22;;;;;;;21.90;7.10;;;10.80;99.90;;;;;;5032388;28;20182;-78
2023/12/22 19:17:48;;;;;;;20.33;6.13;;;10.80;99.90;;;;;;5033220;28;20549;-79
2023/12/22 19:20:13;;;;;;;12.30;3.37;;;10.80;99.90;;;;;;5034300;28;20170;-79
2023/12/22 19:22:42;;;;;;;7.30;2.10;;;10.80;99.90;;;;;;5035561;28;20563;-78
2023/12/22 19:25:11;;;;;;;7.60;2.83;;;10.80;99.90;;;;;;5032324;28;20197;-79
2023/12/22 19:27:37;;;;;;;9.00;2.60;;;10.80;99.90;;;;;;5035362;28;20193;-80
2023/12/22 19:30:03;;;;;;;8.03;1.80;;;10.80;99.90;;;;;;5025394;28;20179;-80
2023/12/22 19:32:29;;;;;;;15.30;2.13;;;10.80;99.90;;;;;;5035174;28;20174;-80
2023/12/22 19:34:55;;;;;;;10.20;2.10;;;10.80;99.90;;;;;;5033724;28;20177;-81
2023/12/22 19:37:21;;;;;;;15.43;4.30;;;10.80;99.90;;;;;;5034016;28;20179;-80
2023/12/22 19:39:47;;;;;;;5.87;2.00;;;10.80;99.90;;;;;;5035761;28;20207;-78
2023/12/22 19:42:13;;;;;;;10.80;1.80;;;10.70;99.90;;;;;;5035187;28;20177;-82
2023/12/22 19:44:39;;;;;;;9.67;1.93;;;10.70;99.90;;;;;;5032141;28;20704;-78
2023/12/22 19:47:05;;;;;;;7.77;1.83;;;10.70;99.90;;;;;;5030779;28;20173;-82
2023/12/22 19:49:31;;;;;;;9.57;2.63;;;10.70;99.90;;;;;;5032144;28;20656;-81
2023/12/22 19:51:56;;;;;;;9.67;1.97;;;10.70;99.90;;;;;;5031812;28;20624;-83
2023/12/22 19:54:22;;;;;;;8.70;2.00;;;10.70;99.90;;;;;;5031840;28;20221;-80
2023/12/22 19:56:48;;;;;;;11.23;2.70;;;10.60;99.90;;;;;;5031604;28;20192;-82
2023/12/22 19:59:13;;;;;;;8.43;2.47;;;10.60;99.90;;;;;;5031555;28;20178;-83
2023/12/22 20:01:42;;;;;;;9.60;2.33;;;10.60;99.90;;;;;;5032826;28;20174;-83
2023/12/22 20:04:08;;;;;;;8.60;1.80;;;10.60;99.90;;;;;;5046872;28;20158;-81
2023/12/22 20:06:35;;;;;;;9.97;1.87;;;10.60;99.90;;;;;;5053150;28;20165;-87
2023/12/22 20:09:01;;;;;;;12.50;2.80;;;10.60;99.90;;;;;;5051984;28;20178;-82
2023/12/22 20:11:27;;;;;;;6.07;1.80;;;10.60;99.90;;;;;;5048168;28;20220;-81
2023/12/22 20:13:53;;;;;;;8.67;2.97;;;10.60;99.90;;;;;;5041388;28;20170;-81
2023/12/22 20:16:20;;;;;;;12.33;2.63;;;10.60;99.90;;;;;;5038271;28;20182;-80
2023/12/22 20:18:45;;;;;;;11.27;2.50;;;10.60;99.90;;;;;;5034230;28;20217;-83
2023/12/22 20:21:12;;;;;;;8.87;2.37;;;10.80;99.90;;;;;;5032718;28;20606;-87
2023/12/22 20:23:38;;;;;;;10.17;2.77;;;10.70;99.90;;;;;;5031373;28;20209;-85
2023/12/22 20:26:04;;;;;;;10.67;2.70;;;10.60;99.90;;;;;;5030778;28;20173;-86
2023/12/22 20:28:29;;;;;;;8.60;2.27;;;10.60;99.90;;;;;;5031933;28;20508;-84
2023/12/22 20:30:55;;;;;;;8.37;2.73;;;10.60;99.90;;;;;;5029404;28;20210;-83
2023/12/22 20:33:21;;;;;;;8.03;2.57;;;10.60;99.90;;;;;;5019462;28;20185;-85
2023/12/22 20:35:47;;;;;;;12.10;2.40;;;10.70;99.90;;;;;;5030645;28;20181;-83
2023/12/22 20:38:13;;;;;;;12.40;2.70;;;10.70;99.90;;;;;;5032943;28;20189;-81
2023/12/22 20:40:39;;;;;;;8.90;2.57;;;10.70;99.90;;;;;;5034914;28;20174;-80
2023/12/22 20:43:05;;;;;;;10.27;2.23;;;10.70;99.90;;;;;;5034251;28;20181;-81
2023/12/22 20:45:31;;;;;;;11.27;3.53;;;10.70;99.90;;;;;;5033824;28;20225;-81
2023/12/22 20:47:56;;;;;;;7.97;2.10;;;10.70;99.90;;;;;;5033955;28;20177;-81
2023/12/22 20:50:22;;;;;;;9.57;2.93;;;10.70;99.90;;;;;;5033892;28;20210;-80
2023/12/22 20:52:54;;;;;;;10.53;2.50;;;10.60;99.90;;;;;;5034169;28;20178;-81
2023/12/22 20:55:21;;;;;;;5.33;2.67;;;10.60;99.90;;;;;;5034191;28;20182;-83
2023/12/22 20:57:48;;;;;;;13.27;6.13;;;10.70;99.90;;;;;;5013195;28;20189;-80
2023/12/22 21:00:14;;;;;;;16.17;4.30;;;10.70;99.90;;;;;;5020709;28;20535;-82
2023/12/22 21:02:40;;;;;;;13.33;3.40;;;10.70;99.90;;;;;;5033910;28;20182;-82
2023/12/22 21:05:07;;;;;;;12.13;3.73;;;10.60;99.90;;;;;;5034364;28;20680;-82
2023/12/22 21:07:33;;;;;;;10.87;2.77;;;10.60;99.90;;;;;;5034692;28;20659;-86
2023/12/22 21:09:58;;;;;;;16.87;3.20;;;10.70;99.90;;;;;;5034233;28;20170;-84
2023/12/22 21:12:24;;;;;;;9.93;2.87;;;10.70;99.90;;;;;;5033321;28;20525;-84
2023/12/22 21:14:52;;;;;;;12.30;3.03;;;10.60;99.90;;;;;;5032302;28;20174;-85
2023/12/22 21:17:19;;;;;;;12.80;3.37;;;10.60;99.90;;;;;;5027658;28;20718;-84
2023/12/22 21:19:45;;;;;;;15.90;3.40;;;10.60;99.90;;;;;;5017419;28;20178;-84
2023/12/22 21:22:11;;;;;;;9.03;2.90;;;10.60;99.90;;;;;;5031990;28;20178;-83
2023/12/22 21:24:38;;;;;;;12.43;3.00;;;10.50;99.90;;;;;;5033232;28;20727;-81
2023/12/22 21:27:04;;;;;;;12.70;3.00;;;10.60;99.90;;;;;;5032989;28;20174;-80
2023/12/22 21:29:30;;;;;;;15.13;3.77;;;10.50;99.90;;;;;;5033413;28;20220;-85
2023/12/22 21:31:55;;;;;;;13.57;3.73;;;10.50;99.90;;;;;;5037098;28;20202;-78
2023/12/22 21:34:21;;;;;;;12.93;3.73;;;10.50;99.90;;;;;;5032127;28;20656;-80
2023/12/22 21:36:48;;;;;;;13.67;3.70;;;10.50;99.90;;;;;;5035864;28;20184;-81
2023/12/22 21:39:14;;;;;;;17.13;4.47;;;10.60;99.90;;;;;;5033415;28;20660;-82
2023/12/22 21:41:40;;;;;;;15.30;4.80;;;10.80;99.90;;;;;;5034044;28;20182;-83
2023/12/22 21:44:05;;;;;;;14.37;3.90;;;10.50;99.90;;;;;;5034890;28;20221;-85
2023/12/22 21:46:31;;;;;;;14.00;5.13;;;10.50;99.90;;;;;;5033800;28;20190;-84
2023/12/22 21:48:57;;;;;;;20.13;3.87;;;10.40;99.90;;;;;;5037543;28;20182;-86
2023/12/22 21:51:26;;;;;;;14.93;4.73;;;10.40;99.90;;;;;;5039022;28;20205;-84
2023/12/22 21:53:52;;;;;;;16.43;4.47;;;10.40;99.90;;;;;;5037623;28;20188;-85
2023/12/22 21:56:21;;;;;;;17.60;5.03;;;10.50;99.90;;;;;;5035487;28;20174;-84
2023/12/22 21:58:47;;;;;;;20.83;5.07;;;10.50;99.90;;;;;;5035754;28;20170;-82
2023/12/22 22:01:13;;;;;;;14.70;4.37;;;10.40;99.90;;;;;;5032477;28;20197;-81
2023/12/22 22:03:39;;;;;;;19.07;5.23;;;10.40;99.90;;;;;;5033359;28;20170;-84
2023/12/22 22:06:04;;;;;;;16.50;4.93;;;10.40;99.90;;;;;;5033674;28;20174;-82
2023/12/22 22:08:30;;;;;;;24.80;4.57;;;10.40;99.90;;;;;;5033281;28;20166;-83
2023/12/22 22:10:56;;;;;;;16.03;4.20;;;10.30;99.90;;;;;;5033260;28;20268;-84
2023/12/22 22:13:22;;;;;;;17.93;4.10;;;10.30;99.90;;;;;;5031207;28;20667;-81
2023/12/22 22:15:48;;;;;;;17.50;4.03;;;10.30;99.90;;;;;;5032188;28;20261;-83
2023/12/22 22:18:14;;;;;;;12.30;3.63;;;10.30;99.90;;;;;;5033259;28;20237;-82
2023/12/22 22:20:41;;;;;;;17.53;3.77;;;10.30;99.90;;;;;;5023127;28;20257;-81
2023/12/22 22:23:06;;;;;;;21.07;4.23;;;10.30;99.90;;;;;;5034182;28;20216;-82
2023/12/22 22:25:32;;;;;;;14.43;3.57;;;10.30;99.90;;;;;;5035855;28;20174;-83
2023/12/22 22:27:58;;;;;;;16.97;4.37;;;10.30;99.90;;;;;;5055683;28;20574;-84
2023/12/22 22:30:24;;;;;;;11.57;3.50;;;10.30;99.90;;;;;;5077045;28;20196;-83
2023/12/22 22:32:49;;;;;;;15.00;3.90;;;10.30;99.90;;;;;;5055497;28;20213;-82
2023/12/22 22:35:15;;;;;;;13.87;3.20;;;10.30;99.90;;;;;;5049222;28;20189;-83
2023/12/22 22:37:41;;;;;;;14.03;3.43;;;10.30;99.90;;;;;;5049432;28;20174;-83
2023/12/22 22:40:07;;;;;;;11.73;3.33;;;10.30;99.90;;;;;;5048677;28;20200;-82
2023/12/22 22:42:33;;;;;;;12.53;2.80;;;10.30;99.90;;;;;;5032367;28;20178;-85
2023/12/22 22:44:59;;;;;;;10.67;2.67;;;10.40;99.90;;;;;;5032190;28;20585;-84
